createdAt,value
2023-05-20T00:00:11.406Z,14.10
2023-05-20T00:03:03.250Z,14.10
2023-05-20T00:05:34.824Z,14.00
2023-05-20T00:08:09.658Z,14.10
2023-05-20T00:10:41.915Z,14.10
2023-05-20T00:13:12.958Z,14.00
2023-05-20T00:15:46.931Z,14.00
2023-05-20T00:18:19.688Z,14.10
2023-05-20T00:20:51.380Z,14.00
2023-05-20T00:23:22.392Z,14.00
2023-05-20T00:25:53.744Z,14.10
2023-05-20T00:28:24.256Z,14.00
2023-05-20T00:30:58.308Z,14.00
2023-05-20T00:33:29.608Z,14.00
2023-05-20T00:36:04.012Z,14.00
2023-05-20T00:38:34.931Z,14.10
2023-05-20T00:41:06.339Z,14.10
2023-05-20T00:43:37.023Z,14.10
2023-05-20T00:46:11.773Z,14.10
2023-05-20T00:48:45.545Z,14.10
2023-05-20T00:51:17.601Z,14.10
2023-05-20T00:53:48.818Z,14.00
2023-05-20T00:56:21.913Z,14.00
2023-05-20T00:58:53.964Z,14.00
2023-05-20T01:01:28.123Z,14.00
2023-05-20T01:03:59.358Z,14.00
2023-05-20T01:06:31.101Z,14.00
2023-05-20T01:09:02.528Z,14.00
2023-05-20T01:11:41.708Z,14.00
2023-05-20T01:14:14.843Z,13.90
2023-05-20T01:16:50.247Z,14.00
2023-05-20T01:19:30.451Z,13.90
2023-05-20T01:22:03.632Z,13.90
2023-05-20T01:24:37.225Z,13.90
2023-05-20T01:27:10.936Z,13.90
2023-05-20T01:29:43.046Z,13.90
2023-05-20T01:32:32.271Z,13.90
2023-05-20T01:35:03.658Z,13.90
2023-05-20T01:37:35.693Z,13.90
2023-05-20T01:40:12.724Z,14.00
2023-05-20T01:42:46.383Z,14.00
2023-05-20T01:45:23.799Z,13.90
2023-05-20T01:47:55.479Z,14.00
2023-05-20T01:50:27.121Z,13.90
2023-05-20T01:52:58.578Z,13.90
2023-05-20T01:55:32.397Z,13.90
2023-05-20T01:58:05.216Z,14.00
2023-05-20T02:00:37.324Z,13.90
2023-05-20T02:03:13.122Z,13.90
2023-05-20T02:05:44.477Z,13.90
2023-05-20T02:08:15.932Z,13.90
2023-05-20T02:10:50.934Z,13.90
2023-05-20T02:13:22.492Z,13.90
2023-05-20T02:15:54.898Z,13.90
2023-05-20T02:18:27.221Z,13.90
2023-05-20T02:20:58.292Z,13.90
2023-05-20T02:23:31.539Z,13.90
2023-05-20T02:26:05.568Z,13.90
2023-05-20T02:28:38.924Z,13.90
2023-05-20T02:31:10.101Z,13.90
2023-05-20T02:33:41.447Z,13.90
2023-05-20T02:36:12.719Z,13.90
2023-05-20T02:38:44.160Z,13.90
2023-05-20T02:41:18.051Z,13.90
2023-05-20T02:43:52.395Z,13.90
2023-05-20T02:46:23.519Z,13.90
2023-05-20T02:48:54.945Z,13.90
2023-05-20T02:51:25.558Z,13.90
2023-05-20T02:53:57.076Z,13.90
2023-05-20T02:56:30.727Z,13.90
2023-05-20T02:59:02.076Z,13.80
2023-05-20T03:01:34.211Z,13.80
2023-05-20T03:04:06.602Z,13.90
2023-05-20T03:06:38.499Z,13.90
2023-05-20T03:09:10.576Z,13.80
2023-05-20T03:11:44.343Z,13.90
2023-05-20T03:14:15.731Z,13.90
2023-05-20T03:16:46.729Z,13.90
2023-05-20T03:19:18.016Z,13.80
2023-05-20T03:21:48.586Z,13.80
2023-05-20T03:24:20.298Z,13.90
2023-05-20T03:26:56.430Z,13.90
2023-05-20T03:29:28.331Z,13.90
2023-05-20T03:31:59.503Z,13.90
2023-05-20T03:34:31.432Z,13.90
2023-05-20T03:37:03.486Z,13.90
2023-05-20T03:39:34.833Z,13.90
2023-05-20T03:42:09.491Z,13.90
2023-05-20T03:44:40.824Z,14.00
2023-05-20T03:47:11.988Z,14.00
2023-05-20T03:49:43.785Z,14.00
2023-05-20T03:52:14.943Z,14.00
2023-05-20T03:54:46.815Z,14.00
2023-05-20T03:57:20.509Z,14.00
2023-05-20T03:59:51.786Z,14.00
2023-05-20T04:02:23.137Z,14.00
2023-05-20T04:04:58.041Z,14.00
2023-05-20T04:07:30.240Z,14.10
2023-05-20T04:10:02.575Z,14.10
2023-05-20T04:12:37.173Z,14.10
2023-05-20T04:15:10.784Z,14.10
2023-05-20T04:17:55.358Z,14.10
2023-05-20T04:20:27.259Z,14.10
2023-05-20T04:23:01.479Z,14.10
2023-05-20T04:25:33.621Z,14.10
2023-05-20T04:28:07.891Z,14.10
2023-05-20T04:30:39.431Z,14.10
2023-05-20T04:33:11.556Z,14.10
2023-05-20T04:35:44.554Z,14.20
2023-05-20T04:38:16.730Z,14.20
2023-05-20T04:40:48.036Z,14.20
2023-05-20T04:43:22.571Z,14.20
2023-05-20T04:45:54.370Z,14.20
2023-05-20T04:48:25.884Z,14.20
2023-05-20T04:50:57.432Z,14.20
2023-05-20T04:53:30.925Z,14.20
2023-05-20T04:56:02.331Z,14.20
2023-05-20T04:58:36.924Z,14.30
2023-05-20T05:01:08.449Z,14.30
2023-05-20T05:03:39.877Z,14.30
2023-05-20T05:06:11.669Z,14.30
2023-05-20T05:08:42.957Z,14.40
2023-05-20T05:11:14.204Z,14.40
2023-05-20T05:13:47.868Z,14.50
2023-05-20T05:16:19.435Z,14.50
2023-05-20T05:18:50.664Z,14.50
2023-05-20T05:21:22.129Z,14.60
2023-05-20T05:23:52.900Z,14.60
2023-05-20T05:26:23.825Z,14.70
2023-05-20T05:28:58.169Z,14.70
2023-05-20T05:31:29.433Z,14.80
2023-05-20T05:34:00.077Z,14.80
2023-05-20T05:36:32.266Z,14.90
2023-05-20T05:39:03.668Z,14.90
2023-05-20T05:41:36.176Z,15.00
2023-05-20T05:44:10.140Z,15.10
2023-05-20T05:46:41.590Z,15.10
2023-05-20T05:49:12.713Z,15.20
2023-05-20T05:51:45.914Z,15.30
2023-05-20T05:54:20.871Z,15.40
2023-05-20T05:56:54.415Z,15.40
2023-05-20T05:59:29.086Z,15.50
2023-05-20T06:02:02.667Z,15.70
2023-05-20T06:04:36.935Z,15.80
2023-05-20T06:07:09.707Z,15.90
2023-05-20T06:09:40.950Z,16.10
2023-05-20T06:12:14.121Z,16.30
2023-05-20T06:14:51.186Z,16.50
2023-05-20T06:17:22.972Z,16.60
2023-05-20T06:19:54.494Z,16.80
2023-05-20T06:22:26.110Z,16.90
2023-05-20T06:25:02.212Z,17.10
2023-05-20T06:27:38.258Z,17.30
2023-05-20T06:30:17.831Z,17.40
2023-05-20T06:32:49.837Z,17.50
2023-05-20T06:35:21.717Z,17.50
2023-05-20T06:37:54.452Z,17.60
2023-05-20T06:40:27.548Z,17.70
2023-05-20T06:42:58.987Z,17.70
2023-05-20T06:45:54.158Z,17.70
2023-05-20T06:48:44.197Z,17.70
2023-05-20T06:51:27.692Z,17.80
2023-05-20T06:53:59.937Z,17.80
2023-05-20T06:56:31.216Z,17.90
2023-05-20T06:59:06.048Z,17.90
2023-05-20T07:01:42.652Z,17.90
2023-05-20T07:04:14.257Z,17.80
2023-05-20T07:06:45.221Z,17.90
2023-05-20T07:09:16.773Z,17.90
2023-05-20T07:11:48.723Z,18.00
2023-05-20T07:14:23.160Z,18.00
2023-05-20T07:16:59.203Z,18.10
2023-05-20T07:19:42.921Z,18.20
2023-05-20T07:22:16.424Z,18.30
2023-05-20T07:25:23.480Z,18.40
2023-05-20T07:27:54.960Z,18.50
2023-05-20T07:30:30.367Z,18.50
2023-05-20T07:33:31.125Z,18.60
2023-05-20T07:36:05.589Z,18.70
2023-05-20T07:38:38.531Z,18.80
2023-05-20T07:41:14.898Z,18.80
2023-05-20T07:43:45.999Z,18.90
2023-05-20T07:46:19.412Z,19.00
2023-05-20T07:48:53.568Z,19.00
2023-05-20T07:51:25.048Z,19.10
2023-05-20T07:53:57.304Z,19.10
2023-05-20T07:56:32.754Z,19.20
2023-05-20T07:59:04.775Z,19.30
2023-05-20T08:01:46.048Z,19.30
2023-05-20T08:04:22.130Z,19.30
2023-05-20T08:06:53.680Z,19.30
2023-05-20T08:09:32.043Z,19.40
2023-05-20T08:12:04.187Z,19.40
2023-05-20T08:14:35.529Z,19.30
2023-05-20T08:17:08.360Z,19.40
2023-05-20T08:19:42.126Z,19.40
2023-05-20T08:22:16.189Z,19.50
2023-05-20T08:24:47.783Z,19.50
2023-05-20T08:27:20.197Z,19.60
2023-05-20T08:29:51.601Z,19.60
2023-05-20T08:32:23.235Z,19.70
2023-05-20T08:34:57.380Z,19.70
2023-05-20T08:37:28.766Z,19.80
2023-05-20T08:40:02.740Z,19.80
2023-05-20T08:42:35.169Z,19.90
2023-05-20T08:45:07.885Z,20.00
2023-05-20T08:47:39.205Z,20.00
2023-05-20T08:50:14.518Z,20.00
2023-05-20T08:52:47.672Z,20.10
2023-05-20T08:55:26.796Z,20.20
2023-05-20T08:57:59.051Z,20.20
2023-05-20T09:00:30.933Z,20.20
2023-05-20T09:03:03.257Z,20.30
2023-05-20T09:05:37.310Z,20.30
2023-05-20T09:08:10.070Z,20.30
2023-05-20T09:10:43.224Z,20.40
2023-05-20T09:13:14.800Z,20.40
2023-05-20T09:15:46.598Z,20.50
2023-05-20T09:18:17.922Z,20.50
2023-05-20T09:20:53.985Z,20.60
2023-05-20T09:23:26.031Z,20.60
2023-05-20T09:25:58.271Z,20.70
2023-05-20T09:28:29.838Z,20.80
2023-05-20T09:31:02.491Z,20.80
2023-05-20T09:33:36.019Z,20.90
2023-05-20T09:36:11.932Z,21.00
2023-05-20T09:38:44.008Z,21.00
2023-05-20T09:41:17.210Z,21.00
2023-05-20T09:43:48.920Z,21.10
2023-05-20T09:46:20.654Z,21.20
2023-05-20T09:48:53.038Z,21.20
2023-05-20T09:51:27.633Z,21.30
2023-05-20T09:53:59.700Z,21.30
2023-05-20T09:56:31.956Z,21.40
2023-05-20T09:59:04.309Z,21.40
2023-05-20T10:01:35.361Z,21.50
2023-05-20T10:04:09.226Z,21.50
2023-05-20T10:07:12.442Z,21.50
2023-05-20T10:09:58.988Z,21.60
2023-05-20T10:12:36.847Z,21.60
2023-05-20T10:15:27.646Z,21.60
2023-05-20T10:18:07.790Z,21.60
2023-05-20T10:20:49.823Z,21.50
2023-05-20T10:23:34.756Z,21.50
2023-05-20T10:26:10.355Z,21.50
2023-05-20T10:28:43.770Z,21.50
2023-05-20T10:31:23.785Z,21.50
2023-05-20T10:33:57.140Z,21.60
2023-05-20T10:36:32.195Z,21.60
2023-05-20T10:39:07.908Z,21.60
2023-05-20T10:41:39.356Z,21.60
2023-05-20T10:44:10.502Z,21.70
2023-05-20T10:49:27.130Z,21.80
2023-05-20T10:51:59.294Z,21.80
2023-05-20T10:54:32.969Z,21.90
2023-05-20T10:57:10.739Z,22.00
2023-05-20T10:59:42.063Z,22.00
2023-05-20T11:02:15.703Z,22.10
2023-05-20T11:04:47.414Z,22.20
2023-05-20T11:07:29.199Z,22.20
2023-05-20T11:10:04.085Z,22.30
2023-05-20T11:12:36.484Z,22.20
2023-05-20T11:15:08.434Z,22.30
2023-05-20T11:17:39.816Z,22.30
2023-05-20T11:20:12.489Z,22.30
2023-05-20T11:22:44.401Z,22.30
2023-05-20T11:25:18.888Z,22.30
2023-05-20T11:27:50.553Z,22.40
2023-05-20T11:30:22.730Z,22.50
2023-05-20T11:33:01.825Z,22.50
2023-05-20T11:35:34.861Z,22.50
2023-05-20T11:38:09.377Z,22.50
2023-05-20T11:40:51.013Z,22.50
2023-05-20T11:43:23.364Z,22.60
2023-05-20T11:45:59.567Z,22.70
2023-05-20T11:48:31.108Z,22.70
2023-05-20T11:51:02.363Z,22.70
2023-05-20T11:53:34.006Z,22.70
2023-05-20T11:56:08.017Z,22.70
2023-05-20T11:58:39.274Z,22.70
2023-05-20T12:01:21.728Z,22.70
2023-05-20T12:03:54.151Z,22.80
2023-05-20T12:06:25.290Z,22.80
2023-05-20T12:08:56.748Z,22.80
2023-05-20T12:11:30.417Z,22.80
2023-05-20T12:14:01.802Z,22.90
2023-05-20T12:16:34.393Z,22.90
2023-05-20T12:19:05.958Z,23.00
2023-05-20T12:21:36.980Z,23.00
2023-05-20T12:24:09.610Z,23.10
2023-05-20T12:26:43.235Z,23.10
2023-05-20T12:29:14.442Z,23.10
2023-05-20T12:31:45.408Z,23.10
2023-05-20T12:34:17.165Z,23.00
2023-05-20T12:36:48.759Z,23.00
2023-05-20T12:39:20.029Z,23.20
2023-05-20T12:41:53.698Z,23.20
2023-05-20T12:44:24.975Z,23.20
2023-05-20T12:46:57.722Z,23.20
2023-05-20T12:49:28.961Z,23.20
2023-05-20T12:52:03.421Z,23.30
2023-05-20T12:54:37.097Z,23.20
2023-05-20T12:57:10.820Z,23.20
2023-05-20T12:59:42.075Z,23.20
2023-05-20T13:02:12.930Z,23.20
2023-05-20T13:04:44.314Z,23.20
2023-05-20T13:07:15.369Z,23.10
2023-05-20T13:09:47.828Z,23.10
2023-05-20T13:12:21.676Z,23.20
2023-05-20T13:14:53.261Z,23.20
2023-05-20T13:17:24.172Z,23.20
2023-05-20T13:19:56.787Z,23.20
2023-05-20T13:22:27.806Z,23.30
2023-05-20T13:24:59.259Z,23.30
2023-05-20T13:27:32.703Z,23.30
2023-05-20T13:30:06.610Z,23.40
2023-05-20T13:32:38.149Z,23.30
2023-05-20T13:35:11.180Z,23.40
2023-05-20T13:37:42.051Z,23.40
2023-05-20T13:40:18.040Z,23.40
2023-05-20T13:42:52.957Z,23.40
2023-05-20T13:45:25.026Z,23.30
2023-05-20T13:47:57.618Z,23.30
2023-05-20T13:50:29.476Z,23.20
2023-05-20T13:53:00.396Z,23.30
2023-05-20T13:55:35.024Z,23.30
2023-05-20T13:58:16.762Z,23.40
2023-05-20T14:00:48.156Z,23.40
2023-05-20T14:03:20.172Z,23.40
2023-05-20T14:05:51.757Z,23.50
2023-05-20T14:08:22.655Z,23.50
2023-05-20T14:10:55.287Z,23.50
2023-05-20T14:13:31.611Z,23.60
2023-05-20T14:16:02.967Z,23.70
2023-05-20T14:18:33.908Z,23.70
2023-05-20T14:21:08.701Z,23.70
2023-05-20T14:23:41.261Z,23.80
2023-05-20T14:26:12.758Z,23.80
2023-05-20T14:28:49.556Z,23.70
2023-05-20T14:31:21.004Z,23.70
2023-05-20T14:33:51.907Z,23.60
2023-05-20T14:36:23.492Z,23.60
2023-05-20T14:38:54.433Z,23.60
2023-05-20T14:41:26.349Z,23.50
2023-05-20T14:43:59.864Z,23.40
2023-05-20T14:46:31.156Z,23.40
2023-05-20T14:49:03.263Z,23.40
2023-05-20T14:51:34.541Z,23.40
2023-05-20T14:54:06.363Z,23.40
2023-05-20T14:56:37.800Z,23.40
2023-05-20T14:59:11.957Z,23.40
2023-05-20T15:01:45.643Z,23.40
2023-05-20T15:04:16.666Z,23.40
2023-05-20T15:06:47.982Z,23.40
2023-05-20T15:09:19.022Z,23.40
2023-05-20T15:11:50.337Z,23.40
2023-05-20T15:14:23.862Z,23.30
2023-05-20T15:16:55.166Z,23.30
2023-05-20T15:19:26.199Z,23.30
2023-05-20T15:21:57.571Z,23.20
2023-05-20T15:24:28.555Z,23.20
2023-05-20T15:27:00.028Z,23.20
2023-05-20T15:29:33.522Z,23.20
2023-05-20T15:32:04.765Z,23.20
2023-05-20T15:34:35.844Z,23.20
2023-05-20T15:37:07.308Z,23.10
2023-05-20T15:39:41.429Z,23.10
2023-05-20T15:42:14.087Z,23.10
2023-05-20T15:44:47.530Z,23.00
2023-05-20T15:47:18.773Z,23.00
2023-05-20T15:49:50.429Z,23.00
2023-05-20T15:52:21.759Z,22.90
2023-05-20T15:54:52.770Z,22.90
2023-05-20T15:57:24.076Z,22.90
2023-05-20T15:59:57.715Z,22.90
2023-05-20T16:02:32.742Z,22.90
2023-05-20T16:05:05.165Z,22.80
2023-05-20T16:07:36.932Z,22.80
2023-05-20T16:10:08.587Z,22.70
2023-05-20T16:12:39.885Z,22.70
2023-05-20T16:15:14.281Z,22.60
2023-05-20T16:17:45.758Z,22.50
2023-05-20T16:20:16.659Z,22.50
2023-05-20T16:22:47.839Z,22.40
2023-05-20T16:25:18.898Z,22.40
2023-05-20T16:27:50.145Z,22.40
2023-05-20T16:30:23.657Z,22.30
2023-05-20T16:32:54.964Z,22.20
2023-05-20T16:35:26.106Z,22.20
2023-05-20T16:37:57.701Z,22.10
2023-05-20T16:40:28.771Z,22.10
2023-05-20T16:42:59.982Z,22.00
2023-05-20T16:45:33.290Z,22.00
2023-05-20T16:48:04.615Z,21.90
2023-05-20T16:50:36.517Z,21.90
2023-05-20T16:53:07.995Z,21.80
2023-05-20T16:55:38.937Z,21.80
2023-05-20T16:58:10.424Z,21.80
2023-05-20T17:00:44.060Z,21.70
2023-05-20T17:03:18.188Z,21.70
2023-05-20T17:05:49.301Z,21.70
2023-05-20T17:08:22.475Z,21.60
2023-05-20T17:10:54.428Z,21.50
2023-05-20T17:13:26.002Z,21.60
2023-05-20T17:15:59.617Z,21.50
2023-05-20T17:18:30.981Z,21.50
2023-05-20T17:21:01.929Z,21.40
2023-05-20T17:23:33.238Z,21.40
2023-05-20T17:26:04.266Z,21.40
2023-05-20T17:28:35.560Z,21.30
2023-05-20T17:31:09.502Z,21.30
2023-05-20T17:33:41.080Z,21.20
2023-05-20T17:36:14.032Z,21.20
2023-05-20T17:38:45.832Z,21.10
2023-05-20T17:41:18.201Z,21.10
2023-05-20T17:43:49.570Z,21.00
2023-05-20T17:46:23.163Z,21.00
2023-05-20T17:48:54.434Z,20.90
2023-05-20T17:51:24.971Z,20.80
2023-05-20T17:53:55.889Z,20.80
2023-05-20T17:56:26.826Z,20.80
2023-05-20T17:58:58.539Z,20.70
2023-05-20T18:01:32.547Z,20.60
2023-05-20T18:04:07.024Z,20.60
2023-05-20T18:06:39.323Z,20.50
2023-05-20T18:09:10.663Z,20.40
2023-05-20T18:11:44.454Z,20.40
2023-05-20T18:14:23.085Z,20.40
2023-05-20T18:17:05.249Z,20.30
2023-05-20T18:19:40.555Z,20.20
2023-05-20T18:22:18.268Z,20.10
2023-05-20T18:24:59.890Z,20.10
2023-05-20T18:27:38.296Z,20.00
2023-05-20T18:30:18.817Z,20.00
2023-05-20T18:33:00.062Z,19.90
2023-05-20T18:35:31.505Z,19.80
2023-05-20T18:38:15.978Z,19.80
2023-05-20T18:40:50.859Z,19.70
2023-05-20T18:43:23.110Z,19.70
2023-05-20T18:45:56.343Z,19.60
2023-05-20T18:48:30.385Z,19.50
2023-05-20T18:51:03.137Z,19.50
2023-05-20T18:53:34.099Z,19.40
2023-05-20T18:56:06.074Z,19.40
2023-05-20T18:58:39.516Z,19.40
2023-05-20T19:01:10.835Z,19.30
2023-05-20T19:03:45.363Z,19.20
2023-05-20T19:06:16.867Z,19.20
2023-05-20T19:08:49.515Z,19.20
2023-05-20T19:11:21.800Z,19.10
2023-05-20T19:13:53.329Z,19.00
2023-05-20T19:16:24.666Z,19.00
2023-05-20T19:18:58.149Z,19.00
2023-05-20T19:21:30.977Z,18.90
2023-05-20T19:24:02.473Z,18.90
2023-05-20T19:26:36.778Z,18.90
2023-05-20T19:29:07.640Z,18.80
2023-05-20T19:31:41.788Z,18.80
2023-05-20T19:34:15.459Z,18.70
2023-05-20T19:36:47.424Z,18.70
2023-05-20T19:39:18.704Z,18.70
2023-05-20T19:41:50.235Z,18.60
2023-05-20T19:44:21.399Z,18.60
2023-05-20T19:46:53.086Z,18.50
2023-05-20T19:49:26.613Z,18.50
2023-05-20T19:51:57.897Z,18.40
2023-05-20T19:54:29.750Z,18.40
2023-05-20T19:57:01.014Z,18.40
2023-05-20T19:59:31.637Z,18.30
2023-05-20T20:02:04.377Z,18.30
2023-05-20T20:04:38.475Z,18.20
2023-05-20T20:07:10.071Z,18.20
2023-05-20T20:09:41.216Z,18.10
2023-05-20T20:12:12.722Z,18.10
2023-05-20T20:14:43.794Z,18.10
2023-05-20T20:17:17.756Z,18.10
2023-05-20T20:19:53.456Z,18.00
2023-05-20T20:22:25.008Z,18.00
2023-05-20T20:24:55.806Z,18.00
2023-05-20T20:27:27.230Z,18.00
2023-05-20T20:29:59.312Z,17.90
2023-05-20T20:32:32.678Z,17.90
2023-05-20T20:35:07.498Z,17.80
2023-05-20T20:37:38.982Z,17.80
2023-05-20T20:40:13.917Z,17.70
2023-05-20T20:42:48.815Z,17.70
2023-05-20T20:45:23.174Z,17.70
2023-05-20T20:47:55.089Z,17.60
2023-05-20T20:50:28.790Z,17.60
2023-05-20T20:53:00.718Z,17.50
2023-05-20T20:55:32.517Z,17.50
2023-05-20T20:58:05.535Z,17.40
2023-05-20T21:00:37.305Z,17.40
2023-05-20T21:03:09.142Z,17.40
2023-05-20T21:05:42.932Z,17.40
2023-05-20T21:08:14.181Z,17.30
2023-05-20T21:10:44.849Z,17.30
2023-05-20T21:13:19.062Z,17.30
2023-05-20T21:15:50.551Z,17.20
2023-05-20T21:18:24.472Z,17.20
2023-05-20T21:20:58.873Z,17.20
2023-05-20T21:23:30.522Z,17.10
2023-05-20T21:26:01.619Z,17.10
2023-05-20T21:28:32.939Z,17.10
2023-05-20T21:31:03.791Z,17.10
2023-05-20T21:33:35.158Z,17.00
2023-05-20T21:36:08.602Z,17.00
2023-05-20T21:38:40.245Z,17.00
2023-05-20T21:41:11.457Z,17.00
2023-05-20T21:43:42.710Z,17.00
2023-05-20T21:46:13.865Z,16.90
2023-05-20T21:48:45.205Z,16.90
2023-05-20T21:51:18.401Z,16.90
2023-05-20T21:53:49.714Z,16.90
2023-05-20T21:56:21.817Z,16.90
2023-05-20T21:58:53.299Z,16.80
2023-05-20T22:01:24.299Z,16.90
2023-05-20T22:03:56.360Z,16.80
2023-05-20T22:06:36.437Z,16.80
2023-05-20T22:09:07.889Z,16.80
2023-05-20T22:11:39.060Z,16.80
2023-05-20T22:14:10.491Z,16.70
2023-05-20T22:16:43.408Z,16.70
2023-05-20T22:19:15.423Z,16.70
2023-05-20T22:21:51.040Z,16.70
2023-05-20T22:24:22.519Z,16.70
2023-05-20T22:26:53.140Z,16.70
2023-05-20T22:29:24.477Z,16.60
2023-05-20T22:31:55.148Z,16.60
2023-05-20T22:34:26.340Z,16.60
2023-05-20T22:36:59.824Z,16.50
2023-05-20T22:39:34.165Z,16.50
2023-05-20T22:42:08.098Z,16.50
2023-05-20T22:44:39.337Z,16.50
2023-05-20T22:47:09.890Z,16.50
2023-05-20T22:49:42.586Z,16.40
2023-05-20T22:52:16.209Z,16.40
2023-05-20T22:54:47.504Z,16.40
2023-05-20T22:57:18.022Z,16.30
2023-05-20T22:59:49.489Z,16.20
2023-05-20T23:02:20.506Z,16.20
2023-05-20T23:04:51.962Z,16.20
2023-05-20T23:07:26.610Z,16.20
2023-05-20T23:09:58.137Z,16.20
2023-05-20T23:12:29.183Z,16.10
2023-05-20T23:15:00.387Z,16.10
2023-05-20T23:17:31.246Z,16.10
2023-05-20T23:20:02.553Z,16.10
2023-05-20T23:22:35.872Z,16.10
2023-05-20T23:25:07.193Z,16.10
2023-05-20T23:27:40.443Z,16.00
2023-05-20T23:30:14.894Z,16.00
2023-05-20T23:32:45.811Z,15.90
2023-05-20T23:35:18.742Z,15.90
2023-05-20T23:37:52.669Z,15.90
2023-05-20T23:40:24.089Z,15.90
2023-05-20T23:42:55.006Z,15.90
2023-05-20T23:45:26.344Z,15.90
2023-05-20T23:47:57.583Z,15.80
2023-05-20T23:50:28.974Z,15.80
2023-05-20T23:53:02.187Z,15.70
2023-05-20T23:55:35.987Z,15.70
2023-05-20T23:58:07.042Z,15.70
